Time;durP1;ratioP1;P1;durP2;ratioP2;P2;SDS_P1;SDS_P2;PMS_P1;PMS_P2;Temp;Humidity;BMP_temperature;BMP_pressure;BME280_temperature;BME280_humidity;BME280_pressure;Samples;Min_cycle;Max_cycle;Signal;HPM_P1;HPM_P2
2022/06/18 00:00:30;;;;;;;0.20;0.10;;;26.80;99.90;;;;;;21232035;28;20187;-73
2022/06/18 00:10:35;;;;;;;0.20;0.00;;;26.80;99.90;;;;;;21230645;28;20295;-73
2022/06/18 00:20:40;;;;;;;0.20;0.00;;;26.50;99.90;;;;;;21228963;28;20235;-72
2022/06/18 00:30:46;;;;;;;0.20;0.00;;;26.90;99.90;;;;;;21228075;28;20241;-73
2022/06/18 00:40:50;;;;;;;0.20;0.00;;;26.80;99.90;;;;;;21226272;28;20202;-69
2022/06/18 00:51:00;;;;;;;0.20;0.00;;;27.00;99.90;;;;;;21226129;28;20253;-71
2022/06/18 01:01:12;;;;;;;0.20;0.00;;;27.00;99.90;;;;;;21226301;28;20300;-72
2022/06/18 01:11:21;;;;;;;0.20;0.10;;;27.30;99.90;;;;;;21226004;28;20247;-72
2022/06/18 01:21:33;;;;;;;0.20;0.00;;;27.00;99.90;;;;;;21224813;28;20230;-70
2022/06/18 01:31:38;;;;;;;0.20;0.00;;;26.90;99.90;;;;;;21222024;28;20239;-71
2022/06/18 01:41:51;;;;;;;0.20;0.10;;;26.80;99.90;;;;;;21225026;28;20195;-72
2022/06/18 01:51:58;;;;;;;0.20;0.00;;;26.50;99.90;;;;;;21228235;28;20219;-73
2022/06/18 02:02:03;;;;;;;0.20;0.00;;;26.00;99.90;;;;;;21240467;27;20246;-73
2022/06/18 02:12:13;;;;;;;0.20;0.10;;;25.80;99.90;;;;;;21239866;27;20282;-71
2022/06/18 02:22:18;;;;;;;0.20;0.00;;;25.90;99.90;;;;;;21239997;28;20239;-72
2022/06/18 02:32:27;;;;;;;0.20;0.00;;;25.90;99.90;;;;;;21239710;28;20226;-73
2022/06/18 02:42:36;;;;;;;0.20;0.00;;;25.80;99.90;;;;;;21239044;28;20267;-72
2022/06/18 02:52:45;;;;;;;0.20;0.00;;;25.60;99.90;;;;;;21236425;28;20230;-71
2022/06/18 03:02:49;;;;;;;0.20;0.00;;;25.70;99.90;;;;;;21236423;27;20284;-71
2022/06/18 03:12:55;;;;;;;0.20;0.00;;;25.60;99.90;;;;;;21236163;28;20276;-72
2022/06/18 03:22:58;;;;;;;0.20;0.00;;;25.50;99.90;;;;;;21235114;27;20291;-70
2022/06/18 03:33:04;;;;;;;0.20;0.00;;;24.90;99.90;;;;;;21234675;28;20257;-71
2022/06/18 03:43:08;;;;;;;0.20;0.00;;;24.60;99.90;;;;;;21232006;28;20214;-71
2022/06/18 03:53:13;;;;;;;0.20;0.00;;;24.60;99.90;;;;;;21232657;28;20223;-72
2022/06/18 04:03:24;;;;;;;0.20;0.00;;;24.20;99.90;;;;;;21229441;28;20219;-70
2022/06/18 04:13:30;;;;;;;0.20;0.00;;;24.10;99.90;;;;;;21230698;28;20283;-71
2022/06/18 04:23:34;;;;;;;0.20;0.00;;;24.00;99.90;;;;;;21227563;28;20298;-71
2022/06/18 04:33:39;;;;;;;0.20;0.00;;;24.00;99.90;;;;;;21228916;28;20259;-70
2022/06/18 04:43:43;;;;;;;0.20;0.00;;;24.20;99.90;;;;;;21228334;27;20250;-69
2022/06/18 04:53:48;;;;;;;0.20;0.00;;;24.10;99.90;;;;;;21226766;28;20240;-70
2022/06/18 05:03:52;;;;;;;0.20;0.00;;;25.20;99.90;;;;;;21227141;28;20226;-72
2022/06/18 05:13:57;;;;;;;0.20;0.00;;;25.70;99.90;;;;;;21224856;28;20219;-71
2022/06/18 05:24:01;;;;;;;0.20;0.00;;;25.90;99.90;;;;;;21224969;28;20242;-71
2022/06/18 05:34:06;;;;;;;0.20;0.10;;;25.70;99.90;;;;;;21221023;28;20235;-71
2022/06/18 05:44:09;;;;;;;0.20;0.00;;;25.80;99.90;;;;;;21224506;28;20211;-71
2022/06/18 05:54:15;;;;;;;0.20;0.00;;;26.00;99.90;;;;;;21220821;28;20282;-70
2022/06/18 06:04:19;;;;;;;0.20;0.00;;;26.00;99.90;;;;;;21220788;28;20227;-70
2022/06/18 06:14:28;;;;;;;0.20;0.00;;;26.30;99.90;;;;;;21221194;28;20237;-70
2022/06/18 06:24:32;;;;;;;0.20;0.00;;;26.40;99.90;;;;;;21221495;28;20211;-70
2022/06/18 06:34:37;;;;;;;0.20;0.00;;;26.70;99.90;;;;;;21219537;28;20282;-69
2022/06/18 06:44:40;;;;;;;0.20;0.00;;;26.90;99.90;;;;;;21233672;28;20211;-70
2022/06/18 06:57:20;;;;;;;0.20;0.00;;;27.30;99.90;;;;;;21232459;28;20219;-70
2022/06/18 07:05:13;;;;;;;0.20;0.00;;;27.40;99.90;;;;;;21233989;28;20223;-70
2022/06/18 07:15:18;;;;;;;0.20;0.00;;;27.70;99.90;;;;;;21232205;28;20233;-71
2022/06/18 07:25:22;;;;;;;0.20;0.00;;;27.50;99.90;;;;;;21230605;28;20262;-71
2022/06/18 07:35:30;;;;;;;0.20;0.00;;;27.30;99.90;;;;;;21227044;28;20287;-71
2022/06/18 07:45:35;;;;;;;0.20;0.10;;;27.40;99.90;;;;;;21228056;28;20217;-71
2022/06/18 07:55:40;;;;;;;0.20;0.00;;;27.50;99.90;;;;;;21225234;27;20239;-71
2022/06/18 08:05:45;;;;;;;0.20;0.00;;;27.70;99.90;;;;;;21227015;27;20257;-70
2022/06/18 08:15:50;;;;;;;0.20;0.00;;;27.60;99.90;;;;;;21226681;28;20247;-71
2022/06/18 08:25:54;;;;;;;0.20;0.00;;;27.30;99.90;;;;;;21225463;28;20191;-73
2022/06/18 08:36:01;;;;;;;0.20;0.00;;;27.70;99.90;;;;;;21172040;28;20238;-71
2022/06/18 08:46:15;;;;;;;0.20;0.00;;;28.20;99.90;;;;;;21150489;28;20204;-71
2022/06/18 08:56:29;;;;;;;0.20;0.00;;;28.50;99.90;;;;;;21158871;28;20245;-67
2022/06/18 09:06:59;;;;;;;0.20;0.00;;;28.30;99.90;;;;;;21139227;28;20284;-70
2022/06/18 09:17:11;;;;;;;0.20;0.00;;;28.00;99.90;;;;;;21136844;28;20287;-72
2022/06/18 09:27:21;;;;;;;0.20;0.00;;;28.30;99.90;;;;;;21132519;28;20215;-72
2022/06/18 09:37:33;;;;;;;0.20;0.00;;;28.60;99.90;;;;;;21133401;28;20239;-76
2022/06/18 09:47:39;;;;;;;0.20;0.00;;;28.00;99.90;;;;;;21134778;28;20214;-70
2022/06/18 09:57:48;;;;;;;0.20;0.00;;;28.10;99.90;;;;;;21133464;28;20231;-71
2022/06/18 10:07:53;;;;;;;0.20;0.00;;;28.20;99.90;;;;;;21133733;28;20219;-72
2022/06/18 10:18:09;;;;;;;0.20;0.00;;;28.90;99.90;;;;;;21143432;28;20247;-70
2022/06/18 10:28:23;;;;;;;0.20;0.00;;;28.90;99.90;;;;;;21146799;28;20188;-67
2022/06/18 10:38:50;;;;;;;0.20;0.00;;;28.70;99.90;;;;;;21144408;28;20238;-71
2022/06/18 10:48:57;;;;;;;0.20;0.00;;;28.80;99.90;;;;;;21145844;28;20192;-71
2022/06/18 10:59:04;;;;;;;0.20;0.00;;;29.00;99.90;;;;;;21147130;28;20291;-71
2022/06/18 11:09:20;;;;;;;0.20;0.00;;;29.20;99.90;;;;;;21144606;28;20296;-71
2022/06/18 11:19:32;;;;;;;0.20;0.10;;;29.20;99.90;;;;;;21143654;28;20253;-71
2022/06/18 11:29:41;;;;;;;0.20;0.00;;;29.40;99.90;;;;;;21143711;28;20286;-71
2022/06/18 11:39:54;;;;;;;0.20;0.00;;;30.50;99.90;;;;;;21144367;28;20243;-70
2022/06/18 11:50:02;;;;;;;0.20;0.00;;;29.80;99.90;;;;;;21142311;28;20188;-71
2022/06/18 12:00:15;;;;;;;0.20;0.00;;;30.60;99.90;;;;;;21141984;28;20246;-71
2022/06/18 12:10:20;;;;;;;0.20;0.10;;;30.40;99.90;;;;;;21141267;28;20268;-72
2022/06/18 12:20:42;;;;;;;0.20;0.00;;;30.50;99.90;;;;;;21142906;28;20232;-71
2022/06/18 12:30:52;;;;;;;0.20;0.00;;;30.50;99.90;;;;;;21141358;28;20218;-73
2022/06/18 12:41:07;;;;;;;0.20;0.00;;;30.80;99.90;;;;;;21137946;28;20216;-72
2022/06/18 12:51:16;;;;;;;0.20;0.10;;;31.10;99.90;;;;;;21137715;28;20652;-73
2022/06/18 13:01:31;;;;;;;0.20;0.00;;;30.40;99.90;;;;;;21137661;28;20895;-72
2022/06/18 13:11:46;;;;;;;0.20;0.10;;;31.10;99.90;;;;;;21135656;28;20228;-72
2022/06/18 13:21:52;;;;;;;0.20;0.10;;;30.70;99.90;;;;;;21134730;28;20215;-72
2022/06/18 13:32:04;;;;;;;0.20;0.00;;;31.10;99.90;;;;;;21135584;28;20246;-72
2022/06/18 13:42:16;;;;;;;0.20;0.00;;;31.60;99.90;;;;;;21135165;28;20199;-71
2022/06/18 13:52:20;;;;;;;0.20;0.00;;;30.40;99.90;;;;;;21146947;28;20223;-72
2022/06/18 14:02:31;;;;;;;0.20;0.10;;;31.00;99.90;;;;;;21152521;28;20219;-71
2022/06/18 14:12:37;;;;;;;0.70;0.70;;;30.80;99.90;;;;;;21151140;28;20290;-71
2022/06/18 14:22:42;;;;;;;0.20;0.10;;;30.90;99.90;;;;;;21151158;28;20268;-72
2022/06/18 14:32:52;;;;;;;0.20;0.00;;;30.30;99.90;;;;;;21146239;28;20262;-71
2022/06/18 14:43:16;;;;;;;0.20;0.00;;;30.70;99.90;;;;;;21146381;28;20196;-71
2022/06/18 14:53:51;;;;;;;0.20;0.00;;;31.20;99.90;;;;;;21143200;28;20246;-68
2022/06/18 15:04:12;;;;;;;0.38;0.38;;;31.40;99.90;;;;;;21119474;28;20236;-71
2022/06/18 15:14:21;;;;;;;0.20;0.00;;;31.30;99.90;;;;;;21146025;28;20532;-72
2022/06/18 15:35:02;;;;;;;0.20;0.00;;;30.90;99.90;;;;;;21141059;28;20254;-70
2022/06/18 15:45:16;;;;;;;0.20;0.10;;;30.30;99.90;;;;;;21138331;28;20196;-71
2022/06/18 15:55:27;;;;;;;0.20;0.00;;;30.20;99.90;;;;;;21135796;28;20219;-70
2022/06/18 16:05:35;;;;;;;0.20;0.00;;;29.70;99.90;;;;;;21134457;28;20261;-71
2022/06/18 16:15:41;;;;;;;0.20;0.10;;;29.60;99.90;;;;;;21137327;28;20288;-72
2022/06/18 16:25:50;;;;;;;0.20;0.00;;;29.60;99.90;;;;;;21136756;28;20192;-71
2022/06/18 16:36:09;;;;;;;0.20;0.00;;;29.40;99.90;;;;;;21134283;28;20240;-70
2022/06/18 16:46:32;;;;;;;0.20;0.00;;;29.10;99.90;;;;;;21136386;28;20192;-71
2022/06/18 16:56:36;;;;;;;0.20;0.10;;;28.80;99.90;;;;;;21135970;28;20630;-69
2022/06/18 17:06:41;;;;;;;0.20;0.00;;;29.00;99.90;;;;;;21134124;28;20243;-73
2022/06/18 17:16:45;;;;;;;0.20;0.00;;;29.20;99.90;;;;;;21135232;28;20223;-72
2022/06/18 17:37:15;;;;;;;0.20;0.10;;;28.50;99.90;;;;;;21134588;28;20239;-73
2022/06/18 17:47:21;;;;;;;0.20;0.00;;;28.60;99.90;;;;;;21131297;28;20187;-73
2022/06/18 17:57:25;;;;;;;0.20;0.00;;;28.20;99.90;;;;;;21132502;28;20214;-81
2022/06/18 18:07:30;;;;;;;0.20;0.00;;;27.70;99.90;;;;;;21132090;28;20228;-73
2022/06/18 18:17:34;;;;;;;0.20;0.00;;;27.70;99.90;;;;;;21152437;28;20287;-71
2022/06/18 18:27:40;;;;;;;0.20;0.00;;;27.40;99.90;;;;;;21172197;28;20210;-70
2022/06/18 18:37:44;;;;;;;0.20;0.00;;;27.20;99.90;;;;;;21180493;28;20290;-73
2022/06/18 18:47:50;;;;;;;0.20;0.00;;;26.40;99.90;;;;;;21232064;28;20226;-74
2022/06/18 18:57:54;;;;;;;0.20;0.00;;;26.20;99.90;;;;;;21227831;27;20225;-72
2022/06/18 19:07:59;;;;;;;0.20;0.00;;;25.60;99.90;;;;;;21211898;28;20230;-70
2022/06/18 19:18:03;;;;;;;0.20;0.00;;;25.20;99.90;;;;;;21200029;28;20234;-73
2022/06/18 19:28:17;;;;;;;0.20;0.10;;;25.00;99.90;;;;;;21184158;28;20251;-73
2022/06/18 19:38:23;;;;;;;0.20;0.00;;;24.80;99.90;;;;;;21155434;28;20343;-74
2022/06/18 19:48:29;;;;;;;0.20;0.00;;;24.70;99.90;;;;;;21198223;28;20184;-73
2022/06/18 19:58:33;;;;;;;0.20;0.00;;;24.50;99.90;;;;;;21182192;28;20284;-73
2022/06/18 20:08:38;;;;;;;0.20;0.00;;;24.60;99.90;;;;;;21181025;28;20231;-72
2022/06/18 20:18:44;;;;;;;0.20;0.00;;;24.70;99.90;;;;;;21154572;28;20314;-72
2022/06/18 20:28:50;;;;;;;0.20;0.00;;;24.50;99.90;;;;;;21154850;28;20184;-71
2022/06/18 20:38:54;;;;;;;0.20;0.00;;;24.60;99.90;;;;;;21145419;28;20235;-72
2022/06/18 20:49:00;;;;;;;0.20;0.00;;;24.70;99.90;;;;;;21224915;28;20211;-71
2022/06/18 20:59:04;;;;;;;0.20;0.00;;;24.60;99.90;;;;;;21220550;28;20235;-71
2022/06/18 21:09:09;;;;;;;0.20;0.00;;;24.60;99.90;;;;;;21220667;28;20362;-72
2022/06/18 21:19:13;;;;;;;0.20;0.00;;;24.60;99.90;;;;;;21222250;28;20290;-71
2022/06/18 21:29:18;;;;;;;0.20;0.10;;;24.70;99.90;;;;;;21223211;28;20184;-72
2022/06/18 21:39:22;;;;;;;0.20;0.00;;;24.80;99.90;;;;;;21221993;28;20223;-71
2022/06/18 21:49:29;;;;;;;0.20;0.00;;;24.70;99.90;;;;;;21221361;28;21017;-74
2022/06/18 21:59:35;;;;;;;0.20;0.00;;;24.60;99.90;;;;;;21168387;28;20231;-73
2022/06/18 22:09:41;;;;;;;0.20;0.00;;;24.40;99.90;;;;;;21180622;28;20855;-72
2022/06/18 22:19:45;;;;;;;0.20;0.00;;;24.30;99.90;;;;;;21191290;28;20364;-72
2022/06/18 22:29:50;;;;;;;0.20;0.00;;;24.30;99.90;;;;;;21171822;28;20247;-73
2022/06/18 22:39:54;;;;;;;0.20;0.00;;;24.50;99.90;;;;;;21192330;28;20278;-73
2022/06/18 22:50:02;;;;;;;0.20;0.00;;;24.70;99.90;;;;;;21188130;28;20207;-73
2022/06/18 23:00:07;;;;;;;0.20;0.00;;;24.60;99.90;;;;;;21189294;28;20283;-73
2022/06/18 23:10:12;;;;;;;0.20;0.00;;;24.70;99.90;;;;;;21189590;28;20251;-73
2022/06/18 23:20:19;;;;;;;0.20;0.00;;;24.80;99.90;;;;;;21190185;28;20242;-72
2022/06/18 23:30:25;;;;;;;0.20;0.00;;;24.60;99.90;;;;;;21189172;28;20247;-71
2022/06/18 23:40:33;;;;;;;0.20;0.00;;;24.60;99.90;;;;;;21182367;28;20241;-72
2022/06/18 23:50:38;;;;;;;0.20;0.00;;;24.20;99.90;;;;;;21188220;28;20204;-73
